sensor_id;sensor_type;location;lat;lon;timestamp;temperature;humidity
6114;DHT22;3087;48.392;10.836;2023-03-23T00:01:15;12.60;99.90
6114;DHT22;3087;48.392;10.836;2023-03-23T00:03:46;12.40;99.90
6114;DHT22;3087;48.392;10.836;2023-03-23T00:06:13;12.10;99.90
6114;DHT22;3087;48.392;10.836;2023-03-23T00:08:45;12.00;99.90
6114;DHT22;3087;48.392;10.836;2023-03-23T00:11:15;11.80;99.90
6114;DHT22;3087;48.392;10.836;2023-03-23T00:13:42;11.60;99.90
6114;DHT22;3087;48.392;10.836;2023-03-23T00:16:09;11.50;99.90
6114;DHT22;3087;48.392;10.836;2023-03-23T00:18:51;11.40;99.90
6114;DHT22;3087;48.392;10.836;2023-03-23T00:21:18;11.30;99.90
6114;DHT22;3087;48.392;10.836;2023-03-23T00:23:44;11.50;99.90
6114;DHT22;3087;48.392;10.836;2023-03-23T00:26:11;11.80;99.90
6114;DHT22;3087;48.392;10.836;2023-03-23T00:28:37;11.90;99.90
6114;DHT22;3087;48.392;10.836;2023-03-23T00:31:06;11.90;99.90
6114;DHT22;3087;48.392;10.836;2023-03-23T00:33:34;11.90;99.90
6114;DHT22;3087;48.392;10.836;2023-03-23T00:36:04;11.90;99.90
6114;DHT22;3087;48.392;10.836;2023-03-23T00:38:31;12.10;99.90
6114;DHT22;3087;48.392;10.836;2023-03-23T00:40:57;12.20;99.90
6114;DHT22;3087;48.392;10.836;2023-03-23T00:43:24;12.30;99.90
6114;DHT22;3087;48.392;10.836;2023-03-23T00:45:54;12.30;99.90
6114;DHT22;3087;48.392;10.836;2023-03-23T00:48:23;12.30;99.90
6114;DHT22;3087;48.392;10.836;2023-03-23T00:50:50;12.40;99.90
6114;DHT22;3087;48.392;10.836;2023-03-23T00:53:17;12.80;99.90
6114;DHT22;3087;48.392;10.836;2023-03-23T00:55:44;12.50;99.90
6114;DHT22;3087;48.392;10.836;2023-03-23T00:58:11;12.50;99.90
6114;DHT22;3087;48.392;10.836;2023-03-23T01:00:38;12.60;99.90
6114;DHT22;3087;48.392;10.836;2023-03-23T01:03:04;12.60;99.90
6114;DHT22;3087;48.392;10.836;2023-03-23T01:05:37;12.50;99.90
6114;DHT22;3087;48.392;10.836;2023-03-23T01:08:04;12.30;99.90
6114;DHT22;3087;48.392;10.836;2023-03-23T01:10:30;12.20;99.90
6114;DHT22;3087;48.392;10.836;2023-03-23T01:12:58;12.10;99.90
6114;DHT22;3087;48.392;10.836;2023-03-23T01:15:25;12.10;99.90
6114;DHT22;3087;48.392;10.836;2023-03-23T01:17:51;12.10;99.90
6114;DHT22;3087;48.392;10.836;2023-03-23T01:20:17;12.10;99.90
6114;DHT22;3087;48.392;10.836;2023-03-23T01:22:43;12.10;99.90
6114;DHT22;3087;48.392;10.836;2023-03-23T01:25:10;12.10;99.90
6114;DHT22;3087;48.392;10.836;2023-03-23T01:27:36;12.00;99.90
6114;DHT22;3087;48.392;10.836;2023-03-23T01:30:03;12.00;99.90
6114;DHT22;3087;48.392;10.836;2023-03-23T01:32:28;12.00;99.90
6114;DHT22;3087;48.392;10.836;2023-03-23T01:34:54;12.00;99.90
6114;DHT22;3087;48.392;10.836;2023-03-23T01:37:20;12.00;99.90
6114;DHT22;3087;48.392;10.836;2023-03-23T01:39:54;11.90;99.90
6114;DHT22;3087;48.392;10.836;2023-03-23T01:42:24;11.80;99.90
6114;DHT22;3087;48.392;10.836;2023-03-23T01:47:17;11.40;99.90
6114;DHT22;3087;48.392;10.836;2023-03-23T01:49:46;11.20;99.90
6114;DHT22;3087;48.392;10.836;2023-03-23T01:52:22;11.10;99.90
6114;DHT22;3087;48.392;10.836;2023-03-23T01:54:49;11.00;99.90
6114;DHT22;3087;48.392;10.836;2023-03-23T01:57:18;10.90;99.90
6114;DHT22;3087;48.392;10.836;2023-03-23T01:59:47;11.00;99.90
6114;DHT22;3087;48.392;10.836;2023-03-23T02:02:15;11.20;99.90
6114;DHT22;3087;48.392;10.836;2023-03-23T02:04:42;11.30;99.90
6114;DHT22;3087;48.392;10.836;2023-03-23T02:07:08;11.20;99.90
6114;DHT22;3087;48.392;10.836;2023-03-23T02:09:34;11.00;99.90
6114;DHT22;3087;48.392;10.836;2023-03-23T02:12:09;10.90;99.90
6114;DHT22;3087;48.392;10.836;2023-03-23T02:14:34;10.90;99.90
6114;DHT22;3087;48.392;10.836;2023-03-23T02:17:09;10.70;99.90
6114;DHT22;3087;48.392;10.836;2023-03-23T02:20:03;10.70;99.90
6114;DHT22;3087;48.392;10.836;2023-03-23T02:34:07;10.60;99.90
6114;DHT22;3087;48.392;10.836;2023-03-23T02:36:47;10.60;99.90
6114;DHT22;3087;48.392;10.836;2023-03-23T02:39:21;10.70;99.90
6114;DHT22;3087;48.392;10.836;2023-03-23T02:42:02;10.70;99.90
6114;DHT22;3087;48.392;10.836;2023-03-23T02:44:30;10.70;99.90
6114;DHT22;3087;48.392;10.836;2023-03-23T02:47:02;10.70;99.90
6114;DHT22;3087;48.392;10.836;2023-03-23T02:49:35;10.60;99.90
6114;DHT22;3087;48.392;10.836;2023-03-23T02:52:06;11.80;99.90
6114;DHT22;3087;48.392;10.836;2023-03-23T02:54:32;11.00;99.90
6114;DHT22;3087;48.392;10.836;2023-03-23T02:56:58;10.80;99.90
6114;DHT22;3087;48.392;10.836;2023-03-23T02:59:25;10.90;99.90
6114;DHT22;3087;48.392;10.836;2023-03-23T03:02:27;11.70;99.90
6114;DHT22;3087;48.392;10.836;2023-03-23T03:04:59;11.20;99.90
6114;DHT22;3087;48.392;10.836;2023-03-23T03:07:48;11.00;99.90
6114;DHT22;3087;48.392;10.836;2023-03-23T03:13:07;11.00;99.90
6114;DHT22;3087;48.392;10.836;2023-03-23T03:15:40;10.90;99.90
6114;DHT22;3087;48.392;10.836;2023-03-23T03:21:07;10.90;99.90
6114;DHT22;3087;48.392;10.836;2023-03-23T03:23:38;10.80;99.90
6114;DHT22;3087;48.392;10.836;2023-03-23T03:26:07;11.00;99.90
6114;DHT22;3087;48.392;10.836;2023-03-23T03:28:35;11.10;99.90
6114;DHT22;3087;48.392;10.836;2023-03-23T03:31:03;11.10;99.90
6114;DHT22;3087;48.392;10.836;2023-03-23T03:33:30;10.70;99.90
6114;DHT22;3087;48.392;10.836;2023-03-23T03:36:02;11.50;99.90
6114;DHT22;3087;48.392;10.836;2023-03-23T03:38:28;10.60;99.90
6114;DHT22;3087;48.392;10.836;2023-03-23T03:40:55;10.60;99.90
6114;DHT22;3087;48.392;10.836;2023-03-23T03:43:21;10.90;99.90
6114;DHT22;3087;48.392;10.836;2023-03-23T03:45:46;10.80;99.90
6114;DHT22;3087;48.392;10.836;2023-03-23T03:48:12;11.70;99.90
6114;DHT22;3087;48.392;10.836;2023-03-23T03:50:38;11.20;99.90
6114;DHT22;3087;48.392;10.836;2023-03-23T03:53:04;10.80;99.90
6114;DHT22;3087;48.392;10.836;2023-03-23T03:55:31;11.00;99.90
6114;DHT22;3087;48.392;10.836;2023-03-23T03:58:02;10.90;99.90
6114;DHT22;3087;48.392;10.836;2023-03-23T04:00:29;11.40;99.90
6114;DHT22;3087;48.392;10.836;2023-03-23T04:02:55;10.70;99.90
6114;DHT22;3087;48.392;10.836;2023-03-23T04:05:22;10.80;99.90
6114;DHT22;3087;48.392;10.836;2023-03-23T04:07:49;10.90;99.90
6114;DHT22;3087;48.392;10.836;2023-03-23T04:10:18;11.00;99.90
6114;DHT22;3087;48.392;10.836;2023-03-23T04:12:47;13.60;99.90
6114;DHT22;3087;48.392;10.836;2023-03-23T04:15:13;11.50;99.90
6114;DHT22;3087;48.392;10.836;2023-03-23T04:17:39;11.70;99.90
6114;DHT22;3087;48.392;10.836;2023-03-23T04:20:06;11.90;99.90
6114;DHT22;3087;48.392;10.836;2023-03-23T04:22:38;12.00;99.90
6114;DHT22;3087;48.392;10.836;2023-03-23T04:25:04;12.30;99.90
6114;DHT22;3087;48.392;10.836;2023-03-23T04:27:32;12.30;99.90
6114;DHT22;3087;48.392;10.836;2023-03-23T04:29:58;12.40;99.90
6114;DHT22;3087;48.392;10.836;2023-03-23T04:32:25;12.40;99.90
6114;DHT22;3087;48.392;10.836;2023-03-23T04:34:55;12.50;99.90
6114;DHT22;3087;48.392;10.836;2023-03-23T04:37:21;12.60;99.90
6114;DHT22;3087;48.392;10.836;2023-03-23T04:39:52;12.80;99.90
6114;DHT22;3087;48.392;10.836;2023-03-23T04:42:27;13.50;99.90
6114;DHT22;3087;48.392;10.836;2023-03-23T04:44:52;14.80;99.90
6114;DHT22;3087;48.392;10.836;2023-03-23T04:47:20;13.10;99.90
6114;DHT22;3087;48.392;10.836;2023-03-23T04:49:45;13.20;99.90
6114;DHT22;3087;48.392;10.836;2023-03-23T04:52:11;14.30;99.90
6114;DHT22;3087;48.392;10.836;2023-03-23T04:54:37;15.30;99.90
6114;DHT22;3087;48.392;10.836;2023-03-23T04:57:03;13.30;99.90
6114;DHT22;3087;48.392;10.836;2023-03-23T04:59:28;13.40;99.90
6114;DHT22;3087;48.392;10.836;2023-03-23T05:01:56;13.50;99.90
6114;DHT22;3087;48.392;10.836;2023-03-23T05:04:22;13.60;99.90
6114;DHT22;3087;48.392;10.836;2023-03-23T05:06:50;13.60;99.90
6114;DHT22;3087;48.392;10.836;2023-03-23T05:09:17;12.00;99.90
6114;DHT22;3087;48.392;10.836;2023-03-23T05:11:43;13.80;99.90
6114;DHT22;3087;48.392;10.836;2023-03-23T05:14:10;13.80;99.90
6114;DHT22;3087;48.392;10.836;2023-03-23T05:16:35;13.80;99.90
6114;DHT22;3087;48.392;10.836;2023-03-23T05:19:03;15.20;99.90
6114;DHT22;3087;48.392;10.836;2023-03-23T05:21:30;14.20;99.90
6114;DHT22;3087;48.392;10.836;2023-03-23T05:23:56;13.70;99.90
6114;DHT22;3087;48.392;10.836;2023-03-23T05:26:22;13.20;99.90
6114;DHT22;3087;48.392;10.836;2023-03-23T05:28:49;12.70;99.90
6114;DHT22;3087;48.392;10.836;2023-03-23T05:31:18;12.30;99.90
6114;DHT22;3087;48.392;10.836;2023-03-23T05:33:43;12.10;99.90
6114;DHT22;3087;48.392;10.836;2023-03-23T05:36:10;12.10;99.90
6114;DHT22;3087;48.392;10.836;2023-03-23T05:38:41;12.10;99.90
6114;DHT22;3087;48.392;10.836;2023-03-23T05:41:14;12.00;99.90
6114;DHT22;3087;48.392;10.836;2023-03-23T05:43:39;11.80;99.90
6114;DHT22;3087;48.392;10.836;2023-03-23T05:46:05;12.50;99.90
6114;DHT22;3087;48.392;10.836;2023-03-23T05:48:32;11.60;99.90
6114;DHT22;3087;48.392;10.836;2023-03-23T05:50:58;11.40;99.90
6114;DHT22;3087;48.392;10.836;2023-03-23T05:53:24;11.40;99.90
6114;DHT22;3087;48.392;10.836;2023-03-23T05:55:50;11.40;99.90
6114;DHT22;3087;48.392;10.836;2023-03-23T05:58:15;14.40;99.90
6114;DHT22;3087;48.392;10.836;2023-03-23T06:00:41;11.60;99.90
6114;DHT22;3087;48.392;10.836;2023-03-23T06:03:07;11.80;99.90
6114;DHT22;3087;48.392;10.836;2023-03-23T06:05:32;11.70;99.90
6114;DHT22;3087;48.392;10.836;2023-03-23T06:07:58;11.80;99.90
6114;DHT22;3087;48.392;10.836;2023-03-23T06:10:25;11.90;99.90
6114;DHT22;3087;48.392;10.836;2023-03-23T06:12:51;11.90;99.90
6114;DHT22;3087;48.392;10.836;2023-03-23T06:15:17;11.90;99.90
6114;DHT22;3087;48.392;10.836;2023-03-23T06:17:43;11.90;99.90
6114;DHT22;3087;48.392;10.836;2023-03-23T06:20:09;12.00;99.90
6114;DHT22;3087;48.392;10.836;2023-03-23T06:22:39;12.10;99.90
6114;DHT22;3087;48.392;10.836;2023-03-23T06:25:07;12.20;99.90
6114;DHT22;3087;48.392;10.836;2023-03-23T06:27:33;12.40;99.90
6114;DHT22;3087;48.392;10.836;2023-03-23T06:30:04;12.50;99.90
6114;DHT22;3087;48.392;10.836;2023-03-23T06:32:30;12.60;99.90
6114;DHT22;3087;48.392;10.836;2023-03-23T06:34:56;12.80;99.90
6114;DHT22;3087;48.392;10.836;2023-03-23T06:37:22;12.90;99.90
6114;DHT22;3087;48.392;10.836;2023-03-23T06:39:48;13.00;99.90
6114;DHT22;3087;48.392;10.836;2023-03-23T06:42:14;13.10;99.90
6114;DHT22;3087;48.392;10.836;2023-03-23T06:44:40;13.60;99.90
6114;DHT22;3087;48.392;10.836;2023-03-23T06:47:05;13.30;99.90
6114;DHT22;3087;48.392;10.836;2023-03-23T06:49:33;13.50;99.90
6114;DHT22;3087;48.392;10.836;2023-03-23T06:51:59;13.50;99.90
6114;DHT22;3087;48.392;10.836;2023-03-23T06:54:28;13.70;99.90
6114;DHT22;3087;48.392;10.836;2023-03-23T06:56:54;13.70;99.90
6114;DHT22;3087;48.392;10.836;2023-03-23T06:59:19;13.70;99.90
6114;DHT22;3087;48.392;10.836;2023-03-23T07:01:45;13.60;99.90
6114;DHT22;3087;48.392;10.836;2023-03-23T07:04:13;13.60;99.90
6114;DHT22;3087;48.392;10.836;2023-03-23T07:06:39;13.60;99.90
6114;DHT22;3087;48.392;10.836;2023-03-23T07:09:05;13.90;99.90
6114;DHT22;3087;48.392;10.836;2023-03-23T07:11:30;13.70;99.90
6114;DHT22;3087;48.392;10.836;2023-03-23T07:13:57;13.80;99.90
6114;DHT22;3087;48.392;10.836;2023-03-23T07:16:23;13.90;99.90
6114;DHT22;3087;48.392;10.836;2023-03-23T07:18:48;13.90;99.90
6114;DHT22;3087;48.392;10.836;2023-03-23T07:21:14;14.00;99.90
6114;DHT22;3087;48.392;10.836;2023-03-23T07:23:39;14.00;99.90
6114;DHT22;3087;48.392;10.836;2023-03-23T07:26:06;14.40;99.90
6114;DHT22;3087;48.392;10.836;2023-03-23T07:28:32;14.20;99.90
6114;DHT22;3087;48.392;10.836;2023-03-23T07:30:57;14.40;99.90
6114;DHT22;3087;48.392;10.836;2023-03-23T07:33:23;14.40;99.90
6114;DHT22;3087;48.392;10.836;2023-03-23T07:35:49;14.50;99.90
6114;DHT22;3087;48.392;10.836;2023-03-23T07:38:14;14.70;99.90
6114;DHT22;3087;48.392;10.836;2023-03-23T07:40:40;14.80;99.90
6114;DHT22;3087;48.392;10.836;2023-03-23T07:43:07;14.90;99.90
6114;DHT22;3087;48.392;10.836;2023-03-23T07:45:33;14.80;99.90
6114;DHT22;3087;48.392;10.836;2023-03-23T07:47:59;14.90;99.90
6114;DHT22;3087;48.392;10.836;2023-03-23T07:50:25;14.90;99.90
6114;DHT22;3087;48.392;10.836;2023-03-23T07:52:54;15.00;99.90
6114;DHT22;3087;48.392;10.836;2023-03-23T07:55:20;15.10;99.90
6114;DHT22;3087;48.392;10.836;2023-03-23T07:57:49;15.20;99.90
6114;DHT22;3087;48.392;10.836;2023-03-23T08:00:16;15.40;99.90
6114;DHT22;3087;48.392;10.836;2023-03-23T08:02:46;15.30;99.90
6114;DHT22;3087;48.392;10.836;2023-03-23T08:05:14;15.40;99.90
6114;DHT22;3087;48.392;10.836;2023-03-23T08:07:41;15.40;99.90
6114;DHT22;3087;48.392;10.836;2023-03-23T08:10:08;15.40;99.90
6114;DHT22;3087;48.392;10.836;2023-03-23T08:12:38;15.50;99.90
6114;DHT22;3087;48.392;10.836;2023-03-23T08:15:05;15.50;99.90
6114;DHT22;3087;48.392;10.836;2023-03-23T08:17:32;15.60;99.90
6114;DHT22;3087;48.392;10.836;2023-03-23T08:19:59;15.70;99.90
6114;DHT22;3087;48.392;10.836;2023-03-23T08:22:26;15.90;99.90
6114;DHT22;3087;48.392;10.836;2023-03-23T08:24:51;16.10;99.90
6114;DHT22;3087;48.392;10.836;2023-03-23T08:27:18;16.20;99.90
6114;DHT22;3087;48.392;10.836;2023-03-23T08:29:47;16.40;99.90
6114;DHT22;3087;48.392;10.836;2023-03-23T08:32:13;16.60;99.90
6114;DHT22;3087;48.392;10.836;2023-03-23T08:34:40;16.80;99.90
6114;DHT22;3087;48.392;10.836;2023-03-23T08:37:07;17.00;99.90
6114;DHT22;3087;48.392;10.836;2023-03-23T08:39:34;17.30;99.90
6114;DHT22;3087;48.392;10.836;2023-03-23T08:42:00;17.40;99.90
6114;DHT22;3087;48.392;10.836;2023-03-23T08:44:25;17.40;99.90
6114;DHT22;3087;48.392;10.836;2023-03-23T08:46:51;17.30;99.90
6114;DHT22;3087;48.392;10.836;2023-03-23T08:49:22;17.20;99.90
6114;DHT22;3087;48.392;10.836;2023-03-23T08:51:48;17.30;99.90
6114;DHT22;3087;48.392;10.836;2023-03-23T08:54:14;17.30;99.90
6114;DHT22;3087;48.392;10.836;2023-03-23T08:56:39;17.40;99.90
6114;DHT22;3087;48.392;10.836;2023-03-23T08:59:05;17.40;99.90
6114;DHT22;3087;48.392;10.836;2023-03-23T09:01:32;17.40;99.90
6114;DHT22;3087;48.392;10.836;2023-03-23T09:03:58;17.50;99.90
6114;DHT22;3087;48.392;10.836;2023-03-23T09:06:25;17.40;99.90
6114;DHT22;3087;48.392;10.836;2023-03-23T09:08:51;17.40;99.90
6114;DHT22;3087;48.392;10.836;2023-03-23T09:11:17;17.50;99.90
6114;DHT22;3087;48.392;10.836;2023-03-23T09:13:43;17.50;99.90
6114;DHT22;3087;48.392;10.836;2023-03-23T09:16:09;17.60;99.90
6114;DHT22;3087;48.392;10.836;2023-03-23T09:18:35;17.50;99.90
6114;DHT22;3087;48.392;10.836;2023-03-23T09:21:02;17.40;99.90
6114;DHT22;3087;48.392;10.836;2023-03-23T09:23:29;17.40;99.90
6114;DHT22;3087;48.392;10.836;2023-03-23T09:25:55;17.40;99.90
6114;DHT22;3087;48.392;10.836;2023-03-23T09:28:21;17.50;99.90
6114;DHT22;3087;48.392;10.836;2023-03-23T09:30:47;17.50;99.90
6114;DHT22;3087;48.392;10.836;2023-03-23T09:33:13;17.50;99.90
6114;DHT22;3087;48.392;10.836;2023-03-23T09:35:39;17.60;99.90
6114;DHT22;3087;48.392;10.836;2023-03-23T09:38:07;17.70;99.90
6114;DHT22;3087;48.392;10.836;2023-03-23T09:40:46;17.80;99.90
6114;DHT22;3087;48.392;10.836;2023-03-23T09:43:33;17.90;99.90
6114;DHT22;3087;48.392;10.836;2023-03-23T09:48:54;18.10;99.90
6114;DHT22;3087;48.392;10.836;2023-03-23T09:51:49;18.10;99.90
6114;DHT22;3087;48.392;10.836;2023-03-23T09:54:26;18.20;99.90
6114;DHT22;3087;48.392;10.836;2023-03-23T09:56:52;18.10;99.90
6114;DHT22;3087;48.392;10.836;2023-03-23T09:59:29;18.10;99.90
6114;DHT22;3087;48.392;10.836;2023-03-23T10:02:12;18.00;99.90
6114;DHT22;3087;48.392;10.836;2023-03-23T10:04:47;18.00;99.90
6114;DHT22;3087;48.392;10.836;2023-03-23T10:07:21;17.90;99.90
6114;DHT22;3087;48.392;10.836;2023-03-23T10:09:54;17.80;99.90
6114;DHT22;3087;48.392;10.836;2023-03-23T10:12:32;17.90;99.90
6114;DHT22;3087;48.392;10.836;2023-03-23T10:20:19;18.00;99.90
6114;DHT22;3087;48.392;10.836;2023-03-23T10:25:30;18.20;99.90
6114;DHT22;3087;48.392;10.836;2023-03-23T10:28:11;18.20;99.90
6114;DHT22;3087;48.392;10.836;2023-03-23T10:30:43;18.20;99.90
6114;DHT22;3087;48.392;10.836;2023-03-23T10:33:16;18.30;99.90
6114;DHT22;3087;48.392;10.836;2023-03-23T10:38:27;18.50;99.90
6114;DHT22;3087;48.392;10.836;2023-03-23T10:41:04;18.60;99.90
6114;DHT22;3087;48.392;10.836;2023-03-23T10:43:32;18.80;99.90
6114;DHT22;3087;48.392;10.836;2023-03-23T10:46:05;18.70;99.90
6114;DHT22;3087;48.392;10.836;2023-03-23T10:48:37;18.80;99.90
6114;DHT22;3087;48.392;10.836;2023-03-23T10:51:06;18.90;99.90
6114;DHT22;3087;48.392;10.836;2023-03-23T10:53:43;19.00;99.90
6114;DHT22;3087;48.392;10.836;2023-03-23T10:56:48;19.00;99.90
6114;DHT22;3087;48.392;10.836;2023-03-23T10:59:25;18.90;99.90
6114;DHT22;3087;48.392;10.836;2023-03-23T11:01:55;18.90;99.90
6114;DHT22;3087;48.392;10.836;2023-03-23T11:04:22;18.90;99.90
6114;DHT22;3087;48.392;10.836;2023-03-23T11:06:51;19.00;99.90
6114;DHT22;3087;48.392;10.836;2023-03-23T11:09:20;18.90;99.90
6114;DHT22;3087;48.392;10.836;2023-03-23T11:11:51;19.00;99.90
6114;DHT22;3087;48.392;10.836;2023-03-23T11:14:27;19.00;99.90
6114;DHT22;3087;48.392;10.836;2023-03-23T11:16:59;18.90;99.90
6114;DHT22;3087;48.392;10.836;2023-03-23T11:19:28;18.90;99.90
6114;DHT22;3087;48.392;10.836;2023-03-23T11:22:17;19.10;99.90
6114;DHT22;3087;48.392;10.836;2023-03-23T11:24:46;18.80;99.90
6114;DHT22;3087;48.392;10.836;2023-03-23T11:27:14;18.80;99.90
6114;DHT22;3087;48.392;10.836;2023-03-23T11:29:56;19.10;99.90
6114;DHT22;3087;48.392;10.836;2023-03-23T11:32:26;19.00;99.90
6114;DHT22;3087;48.392;10.836;2023-03-23T11:34:59;19.10;99.90
6114;DHT22;3087;48.392;10.836;2023-03-23T11:37:33;19.20;99.90
6114;DHT22;3087;48.392;10.836;2023-03-23T11:40:15;19.10;99.90
6114;DHT22;3087;48.392;10.836;2023-03-23T11:42:47;19.30;99.90
6114;DHT22;3087;48.392;10.836;2023-03-23T11:45:20;19.40;99.90
6114;DHT22;3087;48.392;10.836;2023-03-23T11:50:54;19.30;99.90
6114;DHT22;3087;48.392;10.836;2023-03-23T11:53:50;19.20;99.90
6114;DHT22;3087;48.392;10.836;2023-03-23T11:56:26;19.30;99.90
6114;DHT22;3087;48.392;10.836;2023-03-23T11:58:55;19.20;99.90
6114;DHT22;3087;48.392;10.836;2023-03-23T12:15:22;17.70;99.90
6114;DHT22;3087;48.392;10.836;2023-03-23T12:24:16;18.90;99.90
6114;DHT22;3087;48.392;10.836;2023-03-23T12:26:50;18.90;99.90
6114;DHT22;3087;48.392;10.836;2023-03-23T12:34:50;18.70;99.90
6114;DHT22;3087;48.392;10.836;2023-03-23T12:40:28;18.80;99.90
6114;DHT22;3087;48.392;10.836;2023-03-23T12:43:07;19.00;99.90
6114;DHT22;3087;48.392;10.836;2023-03-23T12:46:02;19.00;99.90
6114;DHT22;3087;48.392;10.836;2023-03-23T12:51:20;19.20;99.90
6114;DHT22;3087;48.392;10.836;2023-03-23T12:54:15;19.40;99.90
6114;DHT22;3087;48.392;10.836;2023-03-23T12:57:04;19.40;99.90
6114;DHT22;3087;48.392;10.836;2023-03-23T13:02:43;19.40;99.90
6114;DHT22;3087;48.392;10.836;2023-03-23T13:08:16;19.20;99.90
6114;DHT22;3087;48.392;10.836;2023-03-23T13:10:47;19.30;99.90
6114;DHT22;3087;48.392;10.836;2023-03-23T13:13:17;19.30;99.90
6114;DHT22;3087;48.392;10.836;2023-03-23T13:16:10;19.30;99.90
6114;DHT22;3087;48.392;10.836;2023-03-23T13:21:41;19.40;99.90
6114;DHT22;3087;48.392;10.836;2023-03-23T13:24:15;19.60;99.90
6114;DHT22;3087;48.392;10.836;2023-03-23T13:26:42;19.80;99.90
6114;DHT22;3087;48.392;10.836;2023-03-23T13:29:18;20.20;99.90
6114;DHT22;3087;48.392;10.836;2023-03-23T13:31:46;20.70;99.90
6114;DHT22;3087;48.392;10.836;2023-03-23T13:36:43;20.70;99.90
6114;DHT22;3087;48.392;10.836;2023-03-23T13:39:36;20.70;99.90
6114;DHT22;3087;48.392;10.836;2023-03-23T13:42:04;21.00;99.90
6114;DHT22;3087;48.392;10.836;2023-03-23T13:49:57;22.50;99.90
6114;DHT22;3087;48.392;10.836;2023-03-23T13:57:57;21.10;99.90
6114;DHT22;3087;48.392;10.836;2023-03-23T14:02:50;20.90;99.80
6114;DHT22;3087;48.392;10.836;2023-03-23T14:08:02;20.60;99.90
6114;DHT22;3087;48.392;10.836;2023-03-23T14:10:55;20.60;99.90
6114;DHT22;3087;48.392;10.836;2023-03-23T14:18:59;19.80;99.90
6114;DHT22;3087;48.392;10.836;2023-03-23T14:24:00;19.70;99.90
6114;DHT22;3087;48.392;10.836;2023-03-23T14:26:26;19.50;99.90
6114;DHT22;3087;48.392;10.836;2023-03-23T14:28:53;19.40;99.90
6114;DHT22;3087;48.392;10.836;2023-03-23T14:31:22;19.30;99.90
6114;DHT22;3087;48.392;10.836;2023-03-23T14:33:49;19.10;99.90
6114;DHT22;3087;48.392;10.836;2023-03-23T14:36:28;18.90;99.90
6114;DHT22;3087;48.392;10.836;2023-03-23T14:41:42;18.80;99.90
6114;DHT22;3087;48.392;10.836;2023-03-23T14:44:17;18.70;99.90
6114;DHT22;3087;48.392;10.836;2023-03-23T14:46:44;18.70;99.90
6114;DHT22;3087;48.392;10.836;2023-03-23T14:49:14;18.60;99.90
6114;DHT22;3087;48.392;10.836;2023-03-23T14:51:51;18.50;99.90
6114;DHT22;3087;48.392;10.836;2023-03-23T14:54:25;18.60;99.90
6114;DHT22;3087;48.392;10.836;2023-03-23T14:56:51;18.50;99.90
6114;DHT22;3087;48.392;10.836;2023-03-23T14:59:17;18.40;99.90
6114;DHT22;3087;48.392;10.836;2023-03-23T15:01:43;18.30;99.90
6114;DHT22;3087;48.392;10.836;2023-03-23T15:04:25;18.20;99.90
6114;DHT22;3087;48.392;10.836;2023-03-23T15:06:59;18.00;99.90
6114;DHT22;3087;48.392;10.836;2023-03-23T15:09:25;18.10;99.90
6114;DHT22;3087;48.392;10.836;2023-03-23T15:11:57;18.00;99.90
6114;DHT22;3087;48.392;10.836;2023-03-23T15:14:29;18.00;99.90
6114;DHT22;3087;48.392;10.836;2023-03-23T15:16:56;18.10;99.90
6114;DHT22;3087;48.392;10.836;2023-03-23T15:19:24;18.00;99.90
6114;DHT22;3087;48.392;10.836;2023-03-23T15:21:56;18.00;99.90
6114;DHT22;3087;48.392;10.836;2023-03-23T15:24:38;17.90;99.90
6114;DHT22;3087;48.392;10.836;2023-03-23T15:27:16;17.90;99.90
6114;DHT22;3087;48.392;10.836;2023-03-23T15:29:56;17.90;99.90
6114;DHT22;3087;48.392;10.836;2023-03-23T15:32:36;17.90;99.90
6114;DHT22;3087;48.392;10.836;2023-03-23T15:35:09;17.90;99.90
6114;DHT22;3087;48.392;10.836;2023-03-23T15:37:43;17.80;99.90
6114;DHT22;3087;48.392;10.836;2023-03-23T15:40:17;17.70;99.90
6114;DHT22;3087;48.392;10.836;2023-03-23T15:42:43;17.70;99.90
6114;DHT22;3087;48.392;10.836;2023-03-23T15:52:48;17.40;99.90
6114;DHT22;3087;48.392;10.836;2023-03-23T15:55:29;17.40;99.90
6114;DHT22;3087;48.392;10.836;2023-03-23T15:58:01;17.30;99.90
6114;DHT22;3087;48.392;10.836;2023-03-23T16:00:30;17.30;99.90
6114;DHT22;3087;48.392;10.836;2023-03-23T16:02:59;17.30;99.90
6114;DHT22;3087;48.392;10.836;2023-03-23T16:05:26;17.20;99.90
6114;DHT22;3087;48.392;10.836;2023-03-23T16:07:52;17.20;99.90
6114;DHT22;3087;48.392;10.836;2023-03-23T16:10:22;17.00;99.90
6114;DHT22;3087;48.392;10.836;2023-03-23T16:12:48;18.60;99.90
6114;DHT22;3087;48.392;10.836;2023-03-23T16:15:15;17.00;99.90
6114;DHT22;3087;48.392;10.836;2023-03-23T16:17:41;17.50;99.90
6114;DHT22;3087;48.392;10.836;2023-03-23T16:20:19;17.10;99.90
6114;DHT22;3087;48.392;10.836;2023-03-23T16:22:47;17.20;99.90
6114;DHT22;3087;48.392;10.836;2023-03-23T16:25:13;17.10;99.90
6114;DHT22;3087;48.392;10.836;2023-03-23T16:27:41;17.00;99.90
6114;DHT22;3087;48.392;10.836;2023-03-23T16:30:23;17.00;99.90
6114;DHT22;3087;48.392;10.836;2023-03-23T16:32:50;17.00;99.90
6114;DHT22;3087;48.392;10.836;2023-03-23T16:35:16;17.00;99.90
6114;DHT22;3087;48.392;10.836;2023-03-23T16:37:53;16.90;99.90
6114;DHT22;3087;48.392;10.836;2023-03-23T16:40:19;16.90;99.90
6114;DHT22;3087;48.392;10.836;2023-03-23T16:42:46;16.90;99.90
6114;DHT22;3087;48.392;10.836;2023-03-23T16:45:13;18.60;99.90
6114;DHT22;3087;48.392;10.836;2023-03-23T16:47:39;16.90;99.90
6114;DHT22;3087;48.392;10.836;2023-03-23T16:50:07;17.00;99.90
6114;DHT22;3087;48.392;10.836;2023-03-23T16:52:36;17.00;99.90
6114;DHT22;3087;48.392;10.836;2023-03-23T16:55:02;17.00;99.90
6114;DHT22;3087;48.392;10.836;2023-03-23T16:57:28;17.00;99.90
6114;DHT22;3087;48.392;10.836;2023-03-23T16:59:54;17.00;99.90
6114;DHT22;3087;48.392;10.836;2023-03-23T17:02:23;16.90;99.90
6114;DHT22;3087;48.392;10.836;2023-03-23T17:04:49;17.00;99.90
6114;DHT22;3087;48.392;10.836;2023-03-23T17:07:15;17.00;99.90
6114;DHT22;3087;48.392;10.836;2023-03-23T17:09:40;17.00;99.90
6114;DHT22;3087;48.392;10.836;2023-03-23T17:12:06;17.00;99.90
6114;DHT22;3087;48.392;10.836;2023-03-23T17:14:32;16.80;99.90
6114;DHT22;3087;48.392;10.836;2023-03-23T17:16:58;16.90;99.90
6114;DHT22;3087;48.392;10.836;2023-03-23T17:19:24;17.00;99.90
6114;DHT22;3087;48.392;10.836;2023-03-23T17:21:49;17.00;99.90
6114;DHT22;3087;48.392;10.836;2023-03-23T17:24:16;17.00;99.90
6114;DHT22;3087;48.392;10.836;2023-03-23T17:26:41;17.30;99.90
6114;DHT22;3087;48.392;10.836;2023-03-23T17:29:07;17.10;99.90
6114;DHT22;3087;48.392;10.836;2023-03-23T17:31:33;17.10;99.90
6114;DHT22;3087;48.392;10.836;2023-03-23T17:33:58;17.00;99.90
6114;DHT22;3087;48.392;10.836;2023-03-23T17:36:24;17.00;99.90
6114;DHT22;3087;48.392;10.836;2023-03-23T17:38:50;17.00;99.90
6114;DHT22;3087;48.392;10.836;2023-03-23T17:41:16;17.10;99.90
6114;DHT22;3087;48.392;10.836;2023-03-23T17:43:41;17.20;99.90
6114;DHT22;3087;48.392;10.836;2023-03-23T17:46:08;17.10;99.90
6114;DHT22;3087;48.392;10.836;2023-03-23T17:48:35;17.10;99.90
6114;DHT22;3087;48.392;10.836;2023-03-23T17:51:01;17.10;99.90
6114;DHT22;3087;48.392;10.836;2023-03-23T17:53:28;17.00;99.90